West Lafayette, Indiana
Current Conditions -  °F | °C
As of 10:54 AM on Friday 28 Nov 2014 (Local Time) from KLAF Reporting Station
Overcast Overcast  
Wind Chill: 14°   Ceiling: 12000
Heat Index: 24°   Visibility: 10mi
Dew Point: 14°   Wind: 9mph
Humidity: 65%   Direction: 180°S
Pressure: 30.31"   Gusts: NA
Location:  40.43°N, 86.91°W
Report Text: KLAF 281554Z 18008KT 10SM OVC120 M04/M10 A3031 RMK AO2 SLP270 T10441100
Loading
Personal Weather Stations






























Interactive Weather Map New forecast layout! Learn more

10-Day Weather Forecast

Advertisements
Track Severe Weather on mobile